sensor_id;sensor_type;location;lat;lon;timestamp;P1;durP1;ratioP1;P2;durP2;ratioP2
56381;SDS011;74506;51.150;4.470;2024-01-06T00:02:16;4.65;;;1.15;;
56381;SDS011;74506;51.150;4.470;2024-01-06T00:04:42;5.68;;;1.70;;
56381;SDS011;74506;51.150;4.470;2024-01-06T00:07:08;3.80;;;1.02;;
56381;SDS011;74506;51.150;4.470;2024-01-06T00:09:34;6.28;;;1.52;;
56381;SDS011;74506;51.150;4.470;2024-01-06T00:12:00;8.48;;;1.80;;
56381;SDS011;74506;51.150;4.470;2024-01-06T00:14:27;7.95;;;1.95;;
56381;SDS011;74506;51.150;4.470;2024-01-06T00:16:53;5.72;;;1.70;;
56381;SDS011;74506;51.150;4.470;2024-01-06T00:19:18;5.28;;;1.75;;
56381;SDS011;74506;51.150;4.470;2024-01-06T00:21:44;3.80;;;1.48;;
56381;SDS011;74506;51.150;4.470;2024-01-06T00:24:10;5.57;;;1.77;;
56381;SDS011;74506;51.150;4.470;2024-01-06T00:26:36;8.48;;;1.98;;
56381;SDS011;74506;51.150;4.470;2024-01-06T00:29:01;5.03;;;1.75;;
56381;SDS011;74506;51.150;4.470;2024-01-06T00:31:27;3.17;;;1.33;;
56381;SDS011;74506;51.150;4.470;2024-01-06T00:33:53;9.00;;;1.52;;
56381;SDS011;74506;51.150;4.470;2024-01-06T00:36:18;3.72;;;1.70;;
56381;SDS011;74506;51.150;4.470;2024-01-06T00:38:44;5.40;;;1.90;;
56381;SDS011;74506;51.150;4.470;2024-01-06T00:41:10;3.28;;;1.42;;
56381;SDS011;74506;51.150;4.470;2024-01-06T00:43:35;4.13;;;1.70;;
56381;SDS011;74506;51.150;4.470;2024-01-06T00:46:01;6.45;;;1.83;;
56381;SDS011;74506;51.150;4.470;2024-01-06T00:48:27;3.30;;;2.20;;
56381;SDS011;74506;51.150;4.470;2024-01-06T00:50:52;4.97;;;2.65;;
56381;SDS011;74506;51.150;4.470;2024-01-06T00:53:18;8.50;;;2.80;;
56381;SDS011;74506;51.150;4.470;2024-01-06T00:55:44;6.43;;;3.08;;
56381;SDS011;74506;51.150;4.470;2024-01-06T00:58:09;5.95;;;3.00;;
56381;SDS011;74506;51.150;4.470;2024-01-06T01:00:35;7.57;;;3.40;;
56381;SDS011;74506;51.150;4.470;2024-01-06T01:03:01;7.05;;;3.13;;
56381;SDS011;74506;51.150;4.470;2024-01-06T01:05:27;5.60;;;2.95;;
56381;SDS011;74506;51.150;4.470;2024-01-06T01:07:52;4.25;;;2.95;;
56381;SDS011;74506;51.150;4.470;2024-01-06T01:10:18;5.03;;;3.05;;
56381;SDS011;74506;51.150;4.470;2024-01-06T01:12:44;7.00;;;3.15;;
56381;SDS011;74506;51.150;4.470;2024-01-06T01:15:09;6.00;;;2.70;;
56381;SDS011;74506;51.150;4.470;2024-01-06T01:17:35;4.57;;;2.13;;
56381;SDS011;74506;51.150;4.470;2024-01-06T01:20:02;5.07;;;2.00;;
56381;SDS011;74506;51.150;4.470;2024-01-06T01:22:28;5.13;;;2.30;;
56381;SDS011;74506;51.150;4.470;2024-01-06T01:24:54;4.05;;;2.63;;
56381;SDS011;74506;51.150;4.470;2024-01-06T01:27:19;4.35;;;2.53;;
56381;SDS011;74506;51.150;4.470;2024-01-06T01:29:45;4.72;;;3.08;;
56381;SDS011;74506;51.150;4.470;2024-01-06T01:32:11;7.97;;;3.03;;
56381;SDS011;74506;51.150;4.470;2024-01-06T01:34:36;6.95;;;3.60;;
56381;SDS011;74506;51.150;4.470;2024-01-06T01:37:02;5.82;;;3.40;;
56381;SDS011;74506;51.150;4.470;2024-01-06T01:39:28;7.65;;;3.53;;
56381;SDS011;74506;51.150;4.470;2024-01-06T01:41:54;7.00;;;3.85;;
56381;SDS011;74506;51.150;4.470;2024-01-06T01:44:19;6.85;;;3.65;;
56381;SDS011;74506;51.150;4.470;2024-01-06T01:46:45;5.22;;;3.80;;
56381;SDS011;74506;51.150;4.470;2024-01-06T01:49:11;5.20;;;3.88;;
56381;SDS011;74506;51.150;4.470;2024-01-06T01:51:36;7.88;;;4.00;;
56381;SDS011;74506;51.150;4.470;2024-01-06T01:54:04;7.13;;;4.43;;
56381;SDS011;74506;51.150;4.470;2024-01-06T01:56:31;6.47;;;4.50;;
56381;SDS011;74506;51.150;4.470;2024-01-06T01:59:06;10.52;;;5.20;;
56381;SDS011;74506;51.150;4.470;2024-01-06T02:01:34;9.80;;;5.93;;
56381;SDS011;74506;51.150;4.470;2024-01-06T02:04:00;8.52;;;5.97;;
56381;SDS011;74506;51.150;4.470;2024-01-06T02:06:26;8.88;;;6.00;;
56381;SDS011;74506;51.150;4.470;2024-01-06T02:08:51;12.73;;;6.22;;
56381;SDS011;74506;51.150;4.470;2024-01-06T02:11:17;9.00;;;5.82;;
56381;SDS011;74506;51.150;4.470;2024-01-06T02:13:42;7.85;;;5.63;;
56381;SDS011;74506;51.150;4.470;2024-01-06T02:16:08;10.38;;;6.13;;
56381;SDS011;74506;51.150;4.470;2024-01-06T02:18:34;10.95;;;5.38;;
56381;SDS011;74506;51.150;4.470;2024-01-06T02:21:00;10.50;;;6.50;;
56381;SDS011;74506;51.150;4.470;2024-01-06T02:23:27;9.85;;;6.47;;
56381;SDS011;74506;51.150;4.470;2024-01-06T02:25:52;7.35;;;5.35;;
56381;SDS011;74506;51.150;4.470;2024-01-06T02:28:18;10.85;;;5.88;;
56381;SDS011;74506;51.150;4.470;2024-01-06T02:30:44;11.85;;;5.90;;
56381;SDS011;74506;51.150;4.470;2024-01-06T02:33:09;8.48;;;6.05;;
56381;SDS011;74506;51.150;4.470;2024-01-06T02:35:35;10.48;;;6.22;;
56381;SDS011;74506;51.150;4.470;2024-01-06T02:38:01;10.38;;;6.65;;
56381;SDS011;74506;51.150;4.470;2024-01-06T02:40:27;9.23;;;5.63;;
56381;SDS011;74506;51.150;4.470;2024-01-06T02:42:53;9.32;;;6.30;;
56381;SDS011;74506;51.150;4.470;2024-01-06T02:45:18;15.90;;;7.00;;
56381;SDS011;74506;51.150;4.470;2024-01-06T02:47:44;10.65;;;6.80;;
56381;SDS011;74506;51.150;4.470;2024-01-06T02:50:10;10.32;;;6.63;;
56381;SDS011;74506;51.150;4.470;2024-01-06T02:52:36;13.32;;;6.55;;
56381;SDS011;74506;51.150;4.470;2024-01-06T02:55:01;13.13;;;6.45;;
56381;SDS011;74506;51.150;4.470;2024-01-06T02:57:30;10.65;;;5.25;;
56381;SDS011;74506;51.150;4.470;2024-01-06T02:59:56;12.90;;;5.65;;
56381;SDS011;74506;51.150;4.470;2024-01-06T03:02:22;11.80;;;5.93;;
56381;SDS011;74506;51.150;4.470;2024-01-06T03:04:47;9.75;;;5.32;;
56381;SDS011;74506;51.150;4.470;2024-01-06T03:07:13;7.72;;;5.00;;
56381;SDS011;74506;51.150;4.470;2024-01-06T03:09:39;8.18;;;5.00;;
56381;SDS011;74506;51.150;4.470;2024-01-06T03:12:05;8.23;;;5.03;;
56381;SDS011;74506;51.150;4.470;2024-01-06T03:14:35;9.88;;;5.43;;
56381;SDS011;74506;51.150;4.470;2024-01-06T03:17:01;8.93;;;4.80;;
56381;SDS011;74506;51.150;4.470;2024-01-06T03:19:26;7.22;;;4.95;;
56381;SDS011;74506;51.150;4.470;2024-01-06T03:21:53;8.55;;;5.00;;
56381;SDS011;74506;51.150;4.470;2024-01-06T03:24:19;7.28;;;4.43;;
56381;SDS011;74506;51.150;4.470;2024-01-06T03:26:45;7.88;;;4.50;;
56381;SDS011;74506;51.150;4.470;2024-01-06T03:29:10;8.45;;;4.63;;
56381;SDS011;74506;51.150;4.470;2024-01-06T03:31:37;7.75;;;4.90;;
56381;SDS011;74506;51.150;4.470;2024-01-06T03:34:02;8.70;;;4.95;;
56381;SDS011;74506;51.150;4.470;2024-01-06T03:36:28;7.90;;;4.47;;
56381;SDS011;74506;51.150;4.470;2024-01-06T03:38:54;9.88;;;4.57;;
56381;SDS011;74506;51.150;4.470;2024-01-06T03:41:19;8.35;;;4.85;;
56381;SDS011;74506;51.150;4.470;2024-01-06T03:43:45;8.77;;;4.72;;
56381;SDS011;74506;51.150;4.470;2024-01-06T03:46:11;7.47;;;4.60;;
56381;SDS011;74506;51.150;4.470;2024-01-06T03:48:36;8.32;;;5.07;;
56381;SDS011;74506;51.150;4.470;2024-01-06T03:51:02;12.68;;;4.60;;
56381;SDS011;74506;51.150;4.470;2024-01-06T03:53:28;9.88;;;4.72;;
56381;SDS011;74506;51.150;4.470;2024-01-06T03:55:54;7.03;;;4.45;;
56381;SDS011;74506;51.150;4.470;2024-01-06T03:58:19;9.30;;;4.47;;
56381;SDS011;74506;51.150;4.470;2024-01-06T04:00:45;7.63;;;4.68;;
56381;SDS011;74506;51.150;4.470;2024-01-06T04:03:11;6.68;;;4.25;;
56381;SDS011;74506;51.150;4.470;2024-01-06T04:05:36;9.90;;;4.65;;
56381;SDS011;74506;51.150;4.470;2024-01-06T04:08:02;8.27;;;4.50;;
56381;SDS011;74506;51.150;4.470;2024-01-06T04:10:28;6.90;;;4.70;;
56381;SDS011;74506;51.150;4.470;2024-01-06T04:12:53;7.60;;;4.85;;
56381;SDS011;74506;51.150;4.470;2024-01-06T04:15:19;7.90;;;4.63;;
56381;SDS011;74506;51.150;4.470;2024-01-06T04:17:47;7.30;;;4.80;;
56381;SDS011;74506;51.150;4.470;2024-01-06T04:20:13;8.57;;;4.53;;
56381;SDS011;74506;51.150;4.470;2024-01-06T04:22:39;9.32;;;4.70;;
56381;SDS011;74506;51.150;4.470;2024-01-06T04:25:05;6.10;;;4.53;;
56381;SDS011;74506;51.150;4.470;2024-01-06T04:27:30;9.00;;;4.85;;
56381;SDS011;74506;51.150;4.470;2024-01-06T04:29:56;8.38;;;4.93;;
56381;SDS011;74506;51.150;4.470;2024-01-06T04:32:22;6.53;;;4.68;;
56381;SDS011;74506;51.150;4.470;2024-01-06T04:34:48;6.93;;;4.45;;
56381;SDS011;74506;51.150;4.470;2024-01-06T04:37:13;11.35;;;5.97;;
56381;SDS011;74506;51.150;4.470;2024-01-06T04:39:40;8.02;;;4.90;;
56381;SDS011;74506;51.150;4.470;2024-01-06T04:42:05;8.95;;;4.88;;
56381;SDS011;74506;51.150;4.470;2024-01-06T04:44:31;6.90;;;3.97;;
56381;SDS011;74506;51.150;4.470;2024-01-06T04:46:57;7.57;;;4.10;;
56381;SDS011;74506;51.150;4.470;2024-01-06T04:49:22;9.60;;;4.40;;
56381;SDS011;74506;51.150;4.470;2024-01-06T04:51:48;5.95;;;4.00;;
56381;SDS011;74506;51.150;4.470;2024-01-06T04:54:14;6.55;;;3.63;;
56381;SDS011;74506;51.150;4.470;2024-01-06T04:56:39;8.10;;;3.47;;
56381;SDS011;74506;51.150;4.470;2024-01-06T04:59:05;6.13;;;3.80;;
56381;SDS011;74506;51.150;4.470;2024-01-06T05:01:32;6.47;;;3.72;;
56381;SDS011;74506;51.150;4.470;2024-01-06T05:03:57;7.22;;;3.85;;
56381;SDS011;74506;51.150;4.470;2024-01-06T05:06:24;5.38;;;3.22;;
56381;SDS011;74506;51.150;4.470;2024-01-06T05:08:50;6.63;;;3.78;;
56381;SDS011;74506;51.150;4.470;2024-01-06T05:11:15;6.40;;;3.00;;
56381;SDS011;74506;51.150;4.470;2024-01-06T05:13:41;6.40;;;3.55;;
56381;SDS011;74506;51.150;4.470;2024-01-06T05:16:08;5.88;;;3.17;;
56381;SDS011;74506;51.150;4.470;2024-01-06T05:18:34;7.28;;;3.03;;
56381;SDS011;74506;51.150;4.470;2024-01-06T05:21:00;4.82;;;2.97;;
56381;SDS011;74506;51.150;4.470;2024-01-06T05:23:26;7.72;;;3.70;;
56381;SDS011;74506;51.150;4.470;2024-01-06T05:25:52;4.38;;;2.88;;
56381;SDS011;74506;51.150;4.470;2024-01-06T05:28:17;5.68;;;3.35;;
56381;SDS011;74506;51.150;4.470;2024-01-06T05:30:43;5.32;;;3.30;;
56381;SDS011;74506;51.150;4.470;2024-01-06T05:33:09;5.18;;;2.60;;
56381;SDS011;74506;51.150;4.470;2024-01-06T05:35:35;3.83;;;2.65;;
56381;SDS011;74506;51.150;4.470;2024-01-06T05:38:01;5.55;;;2.38;;
56381;SDS011;74506;51.150;4.470;2024-01-06T05:40:26;3.90;;;2.92;;
56381;SDS011;74506;51.150;4.470;2024-01-06T05:42:52;6.00;;;3.00;;
56381;SDS011;74506;51.150;4.470;2024-01-06T05:45:21;3.13;;;2.50;;
56381;SDS011;74506;51.150;4.470;2024-01-06T05:47:47;5.30;;;3.13;;
56381;SDS011;74506;51.150;4.470;2024-01-06T05:50:14;6.50;;;4.20;;
56381;SDS011;74506;51.150;4.470;2024-01-06T05:52:40;8.80;;;4.45;;
56381;SDS011;74506;51.150;4.470;2024-01-06T05:55:06;9.10;;;4.93;;
56381;SDS011;74506;51.150;4.470;2024-01-06T05:57:32;8.80;;;4.50;;
56381;SDS011;74506;51.150;4.470;2024-01-06T05:59:58;5.65;;;4.57;;
56381;SDS011;74506;51.150;4.470;2024-01-06T06:02:24;7.78;;;5.03;;
56381;SDS011;74506;51.150;4.470;2024-01-06T06:04:50;9.07;;;4.75;;
56381;SDS011;74506;51.150;4.470;2024-01-06T06:07:15;7.32;;;4.60;;
56381;SDS011;74506;51.150;4.470;2024-01-06T06:09:41;6.28;;;4.60;;
56381;SDS011;74506;51.150;4.470;2024-01-06T06:12:07;6.25;;;3.63;;
56381;SDS011;74506;51.150;4.470;2024-01-06T06:14:33;9.02;;;4.82;;
56381;SDS011;74506;51.150;4.470;2024-01-06T06:16:58;7.55;;;4.75;;
56381;SDS011;74506;51.150;4.470;2024-01-06T06:19:24;6.47;;;4.53;;
56381;SDS011;74506;51.150;4.470;2024-01-06T06:21:50;8.00;;;4.75;;
56381;SDS011;74506;51.150;4.470;2024-01-06T06:24:15;8.25;;;4.43;;
56381;SDS011;74506;51.150;4.470;2024-01-06T06:26:41;9.73;;;4.88;;
56381;SDS011;74506;51.150;4.470;2024-01-06T06:29:07;7.75;;;4.88;;
56381;SDS011;74506;51.150;4.470;2024-01-06T06:31:32;6.78;;;4.80;;
56381;SDS011;74506;51.150;4.470;2024-01-06T06:33:58;8.57;;;4.35;;
56381;SDS011;74506;51.150;4.470;2024-01-06T06:36:26;7.90;;;4.25;;
56381;SDS011;74506;51.150;4.470;2024-01-06T06:38:52;6.30;;;4.28;;
56381;SDS011;74506;51.150;4.470;2024-01-06T06:41:19;9.70;;;4.68;;
56381;SDS011;74506;51.150;4.470;2024-01-06T06:43:45;8.85;;;4.55;;
56381;SDS011;74506;51.150;4.470;2024-01-06T06:46:10;8.75;;;4.88;;
56381;SDS011;74506;51.150;4.470;2024-01-06T06:48:36;6.47;;;4.90;;
56381;SDS011;74506;51.150;4.470;2024-01-06T06:51:01;8.07;;;4.80;;
56381;SDS011;74506;51.150;4.470;2024-01-06T06:53:27;8.50;;;4.97;;
56381;SDS011;74506;51.150;4.470;2024-01-06T06:55:53;8.23;;;4.95;;
56381;SDS011;74506;51.150;4.470;2024-01-06T06:58:18;6.47;;;4.35;;
56381;SDS011;74506;51.150;4.470;2024-01-06T07:00:44;8.10;;;4.13;;
56381;SDS011;74506;51.150;4.470;2024-01-06T07:03:09;8.05;;;4.45;;
56381;SDS011;74506;51.150;4.470;2024-01-06T07:05:35;7.75;;;4.40;;
56381;SDS011;74506;51.150;4.470;2024-01-06T07:08:01;5.97;;;4.22;;
56381;SDS011;74506;51.150;4.470;2024-01-06T07:10:27;7.25;;;4.45;;
56381;SDS011;74506;51.150;4.470;2024-01-06T07:12:52;6.75;;;4.28;;
56381;SDS011;74506;51.150;4.470;2024-01-06T07:15:18;6.88;;;4.90;;
56381;SDS011;74506;51.150;4.470;2024-01-06T07:17:44;9.70;;;5.22;;
56381;SDS011;74506;51.150;4.470;2024-01-06T07:20:10;7.93;;;4.82;;
56381;SDS011;74506;51.150;4.470;2024-01-06T07:22:36;8.90;;;4.40;;
56381;SDS011;74506;51.150;4.470;2024-01-06T07:25:01;5.38;;;4.10;;
56381;SDS011;74506;51.150;4.470;2024-01-06T07:27:27;8.48;;;4.70;;
56381;SDS011;74506;51.150;4.470;2024-01-06T07:29:53;7.78;;;4.88;;
56381;SDS011;74506;51.150;4.470;2024-01-06T07:32:21;5.78;;;4.22;;
56381;SDS011;74506;51.150;4.470;2024-01-06T07:34:46;11.20;;;5.00;;
56381;SDS011;74506;51.150;4.470;2024-01-06T07:37:12;8.25;;;5.20;;
56381;SDS011;74506;51.150;4.470;2024-01-06T07:39:37;7.40;;;5.00;;
56381;SDS011;74506;51.150;4.470;2024-01-06T07:42:03;5.85;;;4.15;;
56381;SDS011;74506;51.150;4.470;2024-01-06T07:44:28;8.93;;;5.07;;
56381;SDS011;74506;51.150;4.470;2024-01-06T07:46:53;8.68;;;5.28;;
56381;SDS011;74506;51.150;4.470;2024-01-06T07:49:19;8.27;;;4.93;;
56381;SDS011;74506;51.150;4.470;2024-01-06T07:51:45;7.72;;;4.97;;
56381;SDS011;74506;51.150;4.470;2024-01-06T07:54:11;9.18;;;5.00;;
56381;SDS011;74506;51.150;4.470;2024-01-06T07:56:37;10.32;;;5.43;;
56381;SDS011;74506;51.150;4.470;2024-01-06T07:59:03;7.35;;;4.75;;
56381;SDS011;74506;51.150;4.470;2024-01-06T08:01:29;10.20;;;6.00;;
56381;SDS011;74506;51.150;4.470;2024-01-06T08:03:55;8.52;;;5.30;;
56381;SDS011;74506;51.150;4.470;2024-01-06T08:06:21;8.65;;;5.05;;
56381;SDS011;74506;51.150;4.470;2024-01-06T08:08:47;8.15;;;5.25;;
56381;SDS011;74506;51.150;4.470;2024-01-06T08:11:12;7.80;;;4.07;;
56381;SDS011;74506;51.150;4.470;2024-01-06T08:13:37;6.82;;;4.60;;
56381;SDS011;74506;51.150;4.470;2024-01-06T08:16:03;6.28;;;4.18;;
56381;SDS011;74506;51.150;4.470;2024-01-06T08:18:29;6.25;;;4.10;;
56381;SDS011;74506;51.150;4.470;2024-01-06T08:20:55;5.65;;;3.72;;
56381;SDS011;74506;51.150;4.470;2024-01-06T08:23:21;5.72;;;3.60;;
56381;SDS011;74506;51.150;4.470;2024-01-06T08:25:46;5.93;;;3.35;;
56381;SDS011;74506;51.150;4.470;2024-01-06T08:28:12;5.53;;;3.50;;
56381;SDS011;74506;51.150;4.470;2024-01-06T08:30:40;4.50;;;3.20;;
56381;SDS011;74506;51.150;4.470;2024-01-06T08:33:05;4.75;;;3.20;;
56381;SDS011;74506;51.150;4.470;2024-01-06T08:35:31;4.65;;;2.97;;
56381;SDS011;74506;51.150;4.470;2024-01-06T08:37:57;5.70;;;3.00;;
56381;SDS011;74506;51.150;4.470;2024-01-06T08:40:22;5.38;;;3.42;;
56381;SDS011;74506;51.150;4.470;2024-01-06T08:42:47;4.95;;;3.13;;
56381;SDS011;74506;51.150;4.470;2024-01-06T08:45:13;7.70;;;3.95;;
56381;SDS011;74506;51.150;4.470;2024-01-06T08:47:39;6.25;;;3.35;;
56381;SDS011;74506;51.150;4.470;2024-01-06T08:50:04;5.80;;;3.80;;
56381;SDS011;74506;51.150;4.470;2024-01-06T08:52:30;6.88;;;3.40;;
56381;SDS011;74506;51.150;4.470;2024-01-06T08:54:56;4.75;;;3.38;;
56381;SDS011;74506;51.150;4.470;2024-01-06T08:57:21;6.55;;;3.67;;
56381;SDS011;74506;51.150;4.470;2024-01-06T08:59:47;7.32;;;3.20;;
56381;SDS011;74506;51.150;4.470;2024-01-06T09:02:12;5.35;;;3.60;;
56381;SDS011;74506;51.150;4.470;2024-01-06T09:04:37;3.88;;;3.17;;
56381;SDS011;74506;51.150;4.470;2024-01-06T09:07:03;4.35;;;2.95;;
56381;SDS011;74506;51.150;4.470;2024-01-06T09:09:29;5.80;;;3.60;;
56381;SDS011;74506;51.150;4.470;2024-01-06T09:11:55;5.47;;;3.15;;
56381;SDS011;74506;51.150;4.470;2024-01-06T09:14:21;6.38;;;3.80;;
56381;SDS011;74506;51.150;4.470;2024-01-06T09:16:46;5.78;;;3.60;;
56381;SDS011;74506;51.150;4.470;2024-01-06T09:19:12;5.78;;;3.55;;
56381;SDS011;74506;51.150;4.470;2024-01-06T09:21:38;5.97;;;3.33;;
56381;SDS011;74506;51.150;4.470;2024-01-06T09:24:03;4.15;;;2.83;;
56381;SDS011;74506;51.150;4.470;2024-01-06T09:26:32;5.40;;;2.90;;
56381;SDS011;74506;51.150;4.470;2024-01-06T09:28:59;4.63;;;3.30;;
56381;SDS011;74506;51.150;4.470;2024-01-06T09:31:25;4.25;;;2.45;;
56381;SDS011;74506;51.150;4.470;2024-01-06T09:33:51;3.40;;;2.60;;
56381;SDS011;74506;51.150;4.470;2024-01-06T09:36:16;4.50;;;2.78;;
56381;SDS011;74506;51.150;4.470;2024-01-06T09:38:42;9.15;;;2.95;;
56381;SDS011;74506;51.150;4.470;2024-01-06T09:41:08;5.35;;;3.10;;
56381;SDS011;74506;51.150;4.470;2024-01-06T09:43:33;6.30;;;3.40;;
56381;SDS011;74506;51.150;4.470;2024-01-06T09:46:05;6.00;;;2.78;;
56381;SDS011;74506;51.150;4.470;2024-01-06T09:48:32;3.92;;;3.25;;
56381;SDS011;74506;51.150;4.470;2024-01-06T09:51:01;6.30;;;3.20;;
56381;SDS011;74506;51.150;4.470;2024-01-06T09:53:28;4.22;;;3.00;;
56381;SDS011;74506;51.150;4.470;2024-01-06T09:55:58;3.53;;;2.58;;
56381;SDS011;74506;51.150;4.470;2024-01-06T09:58:24;3.80;;;2.80;;
56381;SDS011;74506;51.150;4.470;2024-01-06T10:00:55;3.72;;;2.70;;
56381;SDS011;74506;51.150;4.470;2024-01-06T10:03:21;3.38;;;2.38;;
56381;SDS011;74506;51.150;4.470;2024-01-06T10:05:47;4.93;;;2.42;;
56381;SDS011;74506;51.150;4.470;2024-01-06T10:08:13;5.75;;;2.60;;
56381;SDS011;74506;51.150;4.470;2024-01-06T10:10:39;4.53;;;2.65;;
56381;SDS011;74506;51.150;4.470;2024-01-06T10:13:04;4.10;;;2.72;;
56381;SDS011;74506;51.150;4.470;2024-01-06T10:15:31;6.88;;;2.90;;
56381;SDS011;74506;51.150;4.470;2024-01-06T10:17:56;3.72;;;2.67;;
56381;SDS011;74506;51.150;4.470;2024-01-06T10:20:23;5.68;;;2.75;;
56381;SDS011;74506;51.150;4.470;2024-01-06T10:22:49;5.18;;;2.90;;
56381;SDS011;74506;51.150;4.470;2024-01-06T10:25:16;4.82;;;3.13;;
56381;SDS011;74506;51.150;4.470;2024-01-06T10:27:42;4.65;;;3.22;;
56381;SDS011;74506;51.150;4.470;2024-01-06T10:30:08;5.13;;;3.15;;
56381;SDS011;74506;51.150;4.470;2024-01-06T10:32:34;4.75;;;3.50;;
56381;SDS011;74506;51.150;4.470;2024-01-06T10:35:01;5.72;;;3.85;;
56381;SDS011;74506;51.150;4.470;2024-01-06T10:37:29;6.47;;;3.75;;
56381;SDS011;74506;51.150;4.470;2024-01-06T10:40:07;6.47;;;3.95;;
56381;SDS011;74506;51.150;4.470;2024-01-06T10:42:33;5.00;;;3.22;;
56381;SDS011;74506;51.150;4.470;2024-01-06T10:44:59;6.10;;;3.97;;
56381;SDS011;74506;51.150;4.470;2024-01-06T10:47:25;6.25;;;3.92;;
56381;SDS011;74506;51.150;4.470;2024-01-06T10:49:52;6.70;;;3.80;;
56381;SDS011;74506;51.150;4.470;2024-01-06T10:52:20;6.20;;;3.92;;
56381;SDS011;74506;51.150;4.470;2024-01-06T10:54:46;6.82;;;4.47;;
56381;SDS011;74506;51.150;4.470;2024-01-06T10:57:15;6.05;;;4.38;;
56381;SDS011;74506;51.150;4.470;2024-01-06T10:59:41;7.65;;;3.75;;
56381;SDS011;74506;51.150;4.470;2024-01-06T11:02:07;6.10;;;4.15;;
56381;SDS011;74506;51.150;4.470;2024-01-06T11:04:33;6.72;;;3.72;;
56381;SDS011;74506;51.150;4.470;2024-01-06T11:06:59;4.60;;;3.35;;
56381;SDS011;74506;51.150;4.470;2024-01-06T11:09:27;6.60;;;4.20;;
56381;SDS011;74506;51.150;4.470;2024-01-06T11:11:56;7.35;;;4.00;;
56381;SDS011;74506;51.150;4.470;2024-01-06T11:16:48;5.40;;;3.72;;
56381;SDS011;74506;51.150;4.470;2024-01-06T11:21:57;7.40;;;3.78;;
56381;SDS011;74506;51.150;4.470;2024-01-06T11:24:42;3.22;;;2.67;;
56381;SDS011;74506;51.150;4.470;2024-01-06T11:27:09;5.85;;;3.45;;
56381;SDS011;74506;51.150;4.470;2024-01-06T11:29:45;4.82;;;3.50;;
56381;SDS011;74506;51.150;4.470;2024-01-06T11:34:51;6.40;;;3.67;;
56381;SDS011;74506;51.150;4.470;2024-01-06T11:37:19;7.75;;;2.90;;
56381;SDS011;74506;51.150;4.470;2024-01-06T11:39:45;6.65;;;3.50;;
56381;SDS011;74506;51.150;4.470;2024-01-06T11:42:11;5.72;;;3.90;;
56381;SDS011;74506;51.150;4.470;2024-01-06T11:44:37;5.10;;;3.72;;
56381;SDS011;74506;51.150;4.470;2024-01-06T11:47:03;6.57;;;3.78;;
56381;SDS011;74506;51.150;4.470;2024-01-06T11:49:29;4.82;;;3.58;;
56381;SDS011;74506;51.150;4.470;2024-01-06T11:51:58;4.22;;;3.38;;
56381;SDS011;74506;51.150;4.470;2024-01-06T11:54:24;7.80;;;4.55;;
56381;SDS011;74506;51.150;4.470;2024-01-06T11:56:50;7.50;;;4.32;;
56381;SDS011;74506;51.150;4.470;2024-01-06T11:59:18;5.38;;;3.70;;
56381;SDS011;74506;51.150;4.470;2024-01-06T12:01:44;5.90;;;3.90;;
56381;SDS011;74506;51.150;4.470;2024-01-06T12:04:10;5.57;;;3.50;;
56381;SDS011;74506;51.150;4.470;2024-01-06T12:06:39;3.78;;;3.22;;
56381;SDS011;74506;51.150;4.470;2024-01-06T12:09:09;4.80;;;3.30;;
56381;SDS011;74506;51.150;4.470;2024-01-06T12:11:35;6.85;;;3.58;;
56381;SDS011;74506;51.150;4.470;2024-01-06T12:14:02;5.20;;;3.65;;
56381;SDS011;74506;51.150;4.470;2024-01-06T12:16:28;6.05;;;3.30;;
56381;SDS011;74506;51.150;4.470;2024-01-06T12:18:55;4.43;;;2.90;;
56381;SDS011;74506;51.150;4.470;2024-01-06T12:21:23;4.63;;;3.17;;
56381;SDS011;74506;51.150;4.470;2024-01-06T12:23:48;4.43;;;2.97;;
56381;SDS011;74506;51.150;4.470;2024-01-06T12:26:16;5.28;;;2.70;;
56381;SDS011;74506;51.150;4.470;2024-01-06T12:28:44;8.10;;;3.42;;
56381;SDS011;74506;51.150;4.470;2024-01-06T12:31:09;5.82;;;3.30;;
56381;SDS011;74506;51.150;4.470;2024-01-06T12:33:40;4.38;;;2.80;;
56381;SDS011;74506;51.150;4.470;2024-01-06T12:36:06;7.47;;;3.08;;
56381;SDS011;74506;51.150;4.470;2024-01-06T12:38:32;3.55;;;2.67;;
56381;SDS011;74506;51.150;4.470;2024-01-06T12:40:58;4.60;;;2.72;;
56381;SDS011;74506;51.150;4.470;2024-01-06T12:43:23;3.33;;;2.65;;
56381;SDS011;74506;51.150;4.470;2024-01-06T12:45:49;4.43;;;2.60;;
56381;SDS011;74506;51.150;4.470;2024-01-06T12:48:18;4.68;;;2.80;;
56381;SDS011;74506;51.150;4.470;2024-01-06T12:50:43;4.35;;;2.55;;
56381;SDS011;74506;51.150;4.470;2024-01-06T12:53:09;5.53;;;2.85;;
56381;SDS011;74506;51.150;4.470;2024-01-06T12:55:37;6.70;;;2.72;;
56381;SDS011;74506;51.150;4.470;2024-01-06T12:58:02;3.35;;;2.60;;
56381;SDS011;74506;51.150;4.470;2024-01-06T13:00:29;4.55;;;2.78;;
56381;SDS011;74506;51.150;4.470;2024-01-06T13:02:55;4.32;;;2.60;;
56381;SDS011;74506;51.150;4.470;2024-01-06T13:05:21;5.57;;;2.78;;
56381;SDS011;74506;51.150;4.470;2024-01-06T13:07:48;4.35;;;2.70;;
56381;SDS011;74506;51.150;4.470;2024-01-06T13:10:14;4.75;;;2.55;;
56381;SDS011;74506;51.150;4.470;2024-01-06T13:12:39;4.70;;;2.75;;
56381;SDS011;74506;51.150;4.470;2024-01-06T13:15:05;5.80;;;2.17;;
56381;SDS011;74506;51.150;4.470;2024-01-06T13:17:31;5.38;;;2.28;;
56381;SDS011;74506;51.150;4.470;2024-01-06T13:19:56;5.00;;;2.60;;
56381;SDS011;74506;51.150;4.470;2024-01-06T13:22:22;5.40;;;2.78;;
56381;SDS011;74506;51.150;4.470;2024-01-06T13:24:47;4.88;;;2.50;;
56381;SDS011;74506;51.150;4.470;2024-01-06T13:27:13;3.30;;;2.53;;
56381;SDS011;74506;51.150;4.470;2024-01-06T13:29:38;4.43;;;2.83;;
56381;SDS011;74506;51.150;4.470;2024-01-06T13:32:04;10.00;;;3.80;;
56381;SDS011;74506;51.150;4.470;2024-01-06T13:34:30;5.75;;;3.40;;
56381;SDS011;74506;51.150;4.470;2024-01-06T13:36:56;4.43;;;2.85;;
56381;SDS011;74506;51.150;4.470;2024-01-06T13:39:23;5.43;;;3.15;;
56381;SDS011;74506;51.150;4.470;2024-01-06T13:41:49;4.82;;;2.72;;
56381;SDS011;74506;51.150;4.470;2024-01-06T13:44:15;4.22;;;3.20;;
56381;SDS011;74506;51.150;4.470;2024-01-06T13:46:41;6.05;;;3.00;;
56381;SDS011;74506;51.150;4.470;2024-01-06T13:49:10;3.60;;;2.90;;
56381;SDS011;74506;51.150;4.470;2024-01-06T13:51:36;4.03;;;3.28;;
56381;SDS011;74506;51.150;4.470;2024-01-06T13:54:02;4.82;;;2.83;;
56381;SDS011;74506;51.150;4.470;2024-01-06T13:56:27;6.05;;;2.92;;
56381;SDS011;74506;51.150;4.470;2024-01-06T13:58:53;4.93;;;3.60;;
56381;SDS011;74506;51.150;4.470;2024-01-06T14:01:19;4.63;;;2.67;;
56381;SDS011;74506;51.150;4.470;2024-01-06T14:03:45;5.10;;;3.15;;
56381;SDS011;74506;51.150;4.470;2024-01-06T14:06:11;4.95;;;2.88;;
56381;SDS011;74506;51.150;4.470;2024-01-06T14:08:37;3.97;;;2.80;;
56381;SDS011;74506;51.150;4.470;2024-01-06T14:11:02;5.05;;;2.83;;
56381;SDS011;74506;51.150;4.470;2024-01-06T14:13:28;5.47;;;2.83;;
56381;SDS011;74506;51.150;4.470;2024-01-06T14:15:54;4.18;;;2.67;;
56381;SDS011;74506;51.150;4.470;2024-01-06T14:18:21;4.88;;;2.78;;
56381;SDS011;74506;51.150;4.470;2024-01-06T14:20:47;5.97;;;3.35;;
56381;SDS011;74506;51.150;4.470;2024-01-06T14:23:13;5.00;;;2.97;;
56381;SDS011;74506;51.150;4.470;2024-01-06T14:25:39;5.53;;;2.60;;
56381;SDS011;74506;51.150;4.470;2024-01-06T14:28:06;5.68;;;2.75;;
56381;SDS011;74506;51.150;4.470;2024-01-06T14:30:32;5.47;;;2.60;;
56381;SDS011;74506;51.150;4.470;2024-01-06T14:32:58;3.80;;;2.70;;
56381;SDS011;74506;51.150;4.470;2024-01-06T14:35:24;4.25;;;2.40;;
56381;SDS011;74506;51.150;4.470;2024-01-06T14:37:49;3.10;;;2.50;;
56381;SDS011;74506;51.150;4.470;2024-01-06T14:40:16;3.72;;;1.75;;
56381;SDS011;74506;51.150;4.470;2024-01-06T14:42:42;2.55;;;1.83;;
56381;SDS011;74506;51.150;4.470;2024-01-06T14:45:09;4.05;;;1.92;;
56381;SDS011;74506;51.150;4.470;2024-01-06T14:47:34;3.95;;;2.00;;
56381;SDS011;74506;51.150;4.470;2024-01-06T14:50:00;4.13;;;1.80;;